Time;durP1;ratioP1;P1;durP2;ratioP2;P2;SDS_P1;SDS_P2;PMS_P1;PMS_P2;Temp;Humidity;BMP_temperature;BMP_pressure;BME280_temperature;BME280_humidity;BME280_pressure;Samples;Min_cycle;Max_cycle;Signal;HPM_P1;HPM_P2
2023/05/22 00:00:35;;;;;;;21.33;19.63;;;15.40;99.90;;;;;;4823269;29;20186;-43
2023/05/22 00:03:02;;;;;;;20.70;19.10;;;15.40;99.90;;;;;;4822756;29;20941;-47
2023/05/22 00:05:29;;;;;;;20.83;19.23;;;15.40;99.90;;;;;;4818662;29;20285;-47
2023/05/22 00:07:55;;;;;;;20.20;18.70;;;15.30;99.90;;;;;;4818990;29;20450;-44
2023/05/22 00:10:20;;;;;;;20.67;19.10;;;15.20;99.90;;;;;;4821948;29;20486;-42
2023/05/22 00:12:46;;;;;;;20.60;19.00;;;15.20;99.90;;;;;;4822379;29;20213;-46
2023/05/22 00:15:12;;;;;;;19.33;17.93;;;15.20;99.90;;;;;;4822831;29;20193;-50
2023/05/22 00:17:38;;;;;;;21.63;19.90;;;15.10;99.90;;;;;;4821290;29;20288;-45
2023/05/22 00:20:09;;;;;;;20.50;18.87;;;15.10;99.90;;;;;;4806379;29;21009;-44
2023/05/22 00:22:35;;;;;;;20.63;19.03;;;15.10;99.90;;;;;;4825628;29;20487;-43
2023/05/22 00:25:05;;;;;;;20.57;18.77;;;15.00;99.90;;;;;;4819082;29;20450;-43
2023/05/22 00:27:32;;;;;;;19.93;18.33;;;15.00;99.90;;;;;;4821963;29;20805;-46
2023/05/22 00:29:58;;;;;;;20.87;19.17;;;15.00;99.90;;;;;;4822452;29;20577;-42
2023/05/22 00:32:26;;;;;;;20.93;19.20;;;14.90;99.90;;;;;;4822146;29;20442;-42
2023/05/22 00:34:52;;;;;;;21.50;19.53;;;14.90;99.90;;;;;;4821675;29;20455;-44
2023/05/22 00:37:19;;;;;;;20.50;18.67;;;14.90;99.90;;;;;;4821736;29;20435;-43
2023/05/22 00:39:45;;;;;;;20.23;18.57;;;14.90;99.90;;;;;;4821717;29;20219;-44
2023/05/22 00:42:11;;;;;;;21.03;19.23;;;14.90;99.90;;;;;;4822070;29;20438;-42
2023/05/22 00:44:37;;;;;;;20.20;18.70;;;14.80;99.90;;;;;;4821874;29;20437;-42
2023/05/22 00:47:03;;;;;;;20.93;19.23;;;14.80;99.90;;;;;;4820977;29;20449;-45
2023/05/22 00:49:29;;;;;;;22.03;20.10;;;14.80;99.90;;;;;;4822624;29;20470;-40
2023/05/22 00:51:54;;;;;;;20.93;19.03;;;14.70;99.90;;;;;;4805472;29;20205;-42
2023/05/22 00:54:20;;;;;;;20.80;19.10;;;14.70;99.90;;;;;;4821160;29;20553;-42
2023/05/22 00:56:47;;;;;;;20.20;18.60;;;14.70;99.90;;;;;;4821411;29;20339;-42
2023/05/22 00:59:12;;;;;;;20.30;18.70;;;14.60;99.90;;;;;;4821926;29;20431;-43
2023/05/22 01:01:40;;;;;;;20.03;18.23;;;14.60;99.90;;;;;;4820708;29;20450;-42
2023/05/22 01:04:09;;;;;;;20.00;18.30;;;14.60;99.90;;;;;;4821951;29;20548;-45
2023/05/22 01:06:35;;;;;;;20.53;18.83;;;14.50;99.90;;;;;;4819378;29;20861;-41
2023/05/22 01:09:00;;;;;;;21.00;19.20;;;14.50;99.90;;;;;;4821315;29;20479;-42
2023/05/22 01:11:47;;;;;;;21.57;19.70;;;14.50;99.90;;;;;;4821629;29;20556;-46
2023/05/22 01:14:23;;;;;;;20.73;19.03;;;14.40;99.90;;;;;;4821625;29;20194;-46
2023/05/22 01:16:59;;;;;;;21.00;19.20;;;14.40;99.90;;;;;;4820950;29;20938;-41
2023/05/22 01:19:46;;;;;;;20.90;18.97;;;14.40;99.90;;;;;;4810511;29;20442;-43
2023/05/22 01:22:48;;;;;;;19.63;18.13;;;14.30;99.90;;;;;;4822443;29;20502;-47
2023/05/22 01:25:52;;;;;;;20.20;18.60;;;14.30;99.90;;;;;;4820642;29;20443;-46
2023/05/22 01:29:00;;;;;;;20.67;19.07;;;14.30;99.90;;;;;;4797847;29;20882;-43
2023/05/22 01:31:28;;;;;;;19.03;17.60;;;14.30;99.90;;;;;;4820364;29;20542;-44
2023/05/22 01:33:56;;;;;;;20.83;19.13;;;14.20;99.90;;;;;;4821157;29;20453;-45
2023/05/22 01:36:27;;;;;;;20.60;18.87;;;14.20;99.90;;;;;;4820710;29;20451;-42
2023/05/22 01:38:54;;;;;;;21.70;19.90;;;14.20;99.90;;;;;;4821008;29;20474;-44
2023/05/22 01:41:22;;;;;;;20.13;18.57;;;14.10;99.90;;;;;;4821276;29;20474;-43
2023/05/22 01:43:47;;;;;;;20.80;19.20;;;14.10;99.90;;;;;;4821066;29;20427;-41
2023/05/22 01:46:13;;;;;;;20.23;18.53;;;14.10;99.90;;;;;;4817827;29;20821;-45
2023/05/22 01:48:38;;;;;;;20.30;18.40;;;14.00;99.90;;;;;;4820003;29;20592;-45
2023/05/22 01:51:41;;;;;;;20.13;18.43;;;14.00;99.90;;;;;;4821303;29;20193;-44
2023/05/22 01:54:13;;;;;;;20.50;18.73;;;14.00;99.90;;;;;;4821038;29;20181;-43
2023/05/22 01:57:02;;;;;;;21.10;19.40;;;13.90;99.90;;;;;;4820625;29;20445;-42
2023/05/22 01:59:36;;;;;;;22.37;20.27;;;13.90;99.90;;;;;;4802600;29;20855;-42
2023/05/22 02:02:05;;;;;;;21.47;19.57;;;13.80;99.90;;;;;;4820340;29;20443;-45
2023/05/22 02:04:34;;;;;;;21.40;19.60;;;13.70;99.90;;;;;;4821132;29;20446;-44
2023/05/22 02:07:01;;;;;;;20.10;18.50;;;13.70;99.90;;;;;;4817380;29;20443;-45
2023/05/22 02:09:30;;;;;;;19.63;18.13;;;13.70;99.90;;;;;;4821183;29;21034;-47
2023/05/22 02:11:58;;;;;;;20.57;18.87;;;13.70;99.90;;;;;;4816031;29;20528;-45
2023/05/22 02:14:24;;;;;;;20.63;18.73;;;13.60;99.90;;;;;;4819591;29;20458;-42
2023/05/22 02:16:50;;;;;;;21.43;19.63;;;13.60;99.90;;;;;;4820647;29;20441;-45
2023/05/22 02:19:15;;;;;;;20.20;18.50;;;13.60;99.90;;;;;;4821010;29;20423;-47
2023/05/22 02:21:42;;;;;;;20.63;18.70;;;13.50;99.90;;;;;;4819957;29;20185;-43
2023/05/22 02:24:07;;;;;;;22.13;20.17;;;13.50;99.90;;;;;;4819258;29;20284;-45
2023/05/22 02:26:33;;;;;;;20.20;18.50;;;13.50;99.90;;;;;;4819141;29;20557;-42
2023/05/22 02:28:59;;;;;;;20.57;18.80;;;13.50;99.90;;;;;;4820505;29;20493;-42
2023/05/22 02:31:25;;;;;;;19.43;17.83;;;13.50;99.90;;;;;;4820356;29;20659;-45
2023/05/22 02:33:50;;;;;;;21.00;19.10;;;13.50;99.90;;;;;;4819965;29;20374;-44
2023/05/22 02:36:16;;;;;;;20.10;18.30;;;13.40;99.90;;;;;;4820622;29;20732;-44
2023/05/22 02:38:42;;;;;;;20.57;18.83;;;13.40;99.90;;;;;;4820442;29;20193;-43
2023/05/22 02:41:07;;;;;;;20.20;18.60;;;13.40;99.90;;;;;;4819189;29;20190;-46
2023/05/22 02:43:33;;;;;;;20.80;19.00;;;13.40;99.90;;;;;;4820020;29;20250;-43
2023/05/22 02:45:58;;;;;;;22.70;20.60;;;13.30;99.90;;;;;;4816205;29;20616;-44
2023/05/22 02:48:24;;;;;;;20.60;18.80;;;13.30;99.90;;;;;;4820311;29;20190;-43
2023/05/22 02:50:50;;;;;;;21.17;19.20;;;13.30;99.90;;;;;;4826327;29;20690;-45
2023/05/22 02:53:16;;;;;;;21.30;19.60;;;13.30;99.90;;;;;;4820756;29;20268;-47
2023/05/22 02:55:42;;;;;;;21.37;19.67;;;13.30;99.90;;;;;;4819699;29;20178;-43
2023/05/22 02:58:11;;;;;;;20.90;18.57;;;13.20;99.90;;;;;;4820298;29;20943;-45
2023/05/22 03:00:37;;;;;;;21.10;19.30;;;13.30;99.90;;;;;;4821342;29;20560;-43
2023/05/22 03:03:03;;;;;;;20.60;18.80;;;13.30;99.90;;;;;;4820420;29;20459;-46
2023/05/22 03:05:30;;;;;;;21.30;19.50;;;13.30;99.90;;;;;;4819617;29;20438;-44
2023/05/22 03:07:56;;;;;;;20.97;19.17;;;13.30;99.90;;;;;;4814718;29;20558;-43
2023/05/22 03:10:22;;;;;;;19.77;18.10;;;13.20;99.90;;;;;;4820015;29;20553;-45
2023/05/22 03:12:47;;;;;;;20.17;18.57;;;13.20;99.90;;;;;;4819898;29;20513;-41
2023/05/22 03:15:13;;;;;;;22.03;19.97;;;13.20;99.90;;;;;;4819853;29;20446;-43
2023/05/22 03:17:38;;;;;;;20.60;18.90;;;13.10;99.90;;;;;;4818683;29;20649;-41
2023/05/22 03:20:05;;;;;;;19.77;18.10;;;13.10;99.90;;;;;;4819863;29;20194;-42
2023/05/22 03:22:31;;;;;;;20.87;19.07;;;13.10;99.90;;;;;;4819658;29;20731;-46
2023/05/22 03:24:57;;;;;;;20.50;18.80;;;13.10;99.90;;;;;;4819318;29;20442;-45
2023/05/22 03:27:22;;;;;;;20.03;18.40;;;13.00;99.90;;;;;;4819203;29;20222;-42
2023/05/22 03:29:48;;;;;;;18.90;17.10;;;13.00;99.90;;;;;;4819573;29;20220;-43
2023/05/22 03:32:13;;;;;;;21.37;19.47;;;13.00;99.90;;;;;;4819606;29;20267;-43
2023/05/22 03:34:39;;;;;;;19.83;18.13;;;13.00;99.90;;;;;;4819703;29;20196;-44
2023/05/22 03:37:05;;;;;;;21.93;19.83;;;13.00;99.90;;;;;;4818453;29;20192;-41
2023/05/22 03:39:31;;;;;;;20.37;18.57;;;13.00;99.90;;;;;;4818949;29;20212;-42
2023/05/22 03:41:57;;;;;;;22.80;19.30;;;13.10;99.90;;;;;;4819594;29;20518;-43
2023/05/22 03:44:23;;;;;;;20.43;18.73;;;13.00;99.90;;;;;;4819850;29;20353;-41
2023/05/22 03:46:48;;;;;;;22.07;20.07;;;13.00;99.90;;;;;;4813178;29;20309;-46
2023/05/22 03:49:14;;;;;;;21.90;20.00;;;13.10;99.90;;;;;;4812446;29;21369;-42
2023/05/22 03:51:40;;;;;;;20.87;18.97;;;13.10;99.90;;;;;;4818051;29;20502;-43
2023/05/22 03:54:05;;;;;;;20.73;18.83;;;13.10;99.90;;;;;;4819407;29;20189;-45
2023/05/22 03:56:31;;;;;;;21.60;19.70;;;13.10;99.90;;;;;;4819010;29;20691;-44
2023/05/22 03:58:56;;;;;;;20.17;18.37;;;13.20;99.90;;;;;;4809537;29;20217;-46
2023/05/22 04:01:22;;;;;;;21.23;19.23;;;13.20;99.90;;;;;;4820299;29;20236;-47
2023/05/22 04:03:48;;;;;;;21.13;19.30;;;13.30;99.90;;;;;;4817812;29;20182;-42
2023/05/22 04:06:13;;;;;;;19.00;17.37;;;13.30;99.90;;;;;;4808098;29;20229;-41
2023/05/22 04:08:39;;;;;;;21.87;19.87;;;13.40;99.90;;;;;;4810210;29;20197;-41
2023/05/22 04:11:05;;;;;;;19.90;18.17;;;13.40;99.90;;;;;;4818921;29;20529;-43
2023/05/22 04:13:31;;;;;;;20.20;18.40;;;13.40;99.90;;;;;;4817878;29;20197;-42
2023/05/22 04:15:57;;;;;;;20.37;18.47;;;13.50;99.90;;;;;;4819404;29;20548;-45
2023/05/22 04:18:23;;;;;;;20.73;18.97;;;13.50;99.90;;;;;;4818594;29;20446;-44
2023/05/22 04:20:50;;;;;;;21.73;19.83;;;13.50;99.90;;;;;;4814823;29;20569;-43
2023/05/22 04:23:16;;;;;;;20.30;18.70;;;13.60;99.90;;;;;;4809585;29;20229;-42
2023/05/22 04:25:42;;;;;;;21.17;19.33;;;13.70;99.90;;;;;;4793694;29;20458;-42
2023/05/22 04:28:08;;;;;;;20.17;18.47;;;13.70;99.90;;;;;;4809813;29;20439;-52
2023/05/22 04:30:35;;;;;;;19.87;18.27;;;13.70;99.90;;;;;;4810475;29;20233;-50
2023/05/22 04:33:02;;;;;;;20.57;18.87;;;13.80;99.90;;;;;;4809717;29;20641;-51
2023/05/22 04:35:30;;;;;;;20.37;18.77;;;13.80;99.90;;;;;;4811385;29;20976;-54
2023/05/22 04:37:56;;;;;;;20.33;18.30;;;13.90;99.90;;;;;;4815067;29;20438;-52
2023/05/22 04:40:22;;;;;;;20.03;18.37;;;13.90;99.90;;;;;;4813660;29;20458;-49
2023/05/22 04:42:49;;;;;;;20.03;18.43;;;14.00;99.90;;;;;;4812237;29;20443;-48
2023/05/22 04:45:14;;;;;;;19.63;17.83;;;14.10;99.90;;;;;;4813746;29;20473;-49
2023/05/22 04:47:40;;;;;;;19.40;17.80;;;14.20;99.90;;;;;;4814035;29;20974;-53
2023/05/22 04:50:07;;;;;;;18.63;17.13;;;14.30;99.90;;;;;;4813289;29;20206;-48
2023/05/22 04:52:32;;;;;;;19.83;18.13;;;14.40;99.90;;;;;;4813718;29;20661;-50
2023/05/22 04:54:58;;;;;;;19.87;18.30;;;14.50;99.90;;;;;;4812180;29;20453;-51
2023/05/22 04:57:26;;;;;;;20.07;18.50;;;14.50;99.90;;;;;;4813854;29;20263;-51
2023/05/22 04:59:53;;;;;;;19.67;17.80;;;14.60;99.90;;;;;;4813454;29;20205;-50
2023/05/22 05:02:18;;;;;;;18.23;16.83;;;14.70;99.90;;;;;;4812618;29;20942;-45
2023/05/22 05:04:45;;;;;;;19.77;18.03;;;14.80;99.90;;;;;;4813179;29;20507;-41
2023/05/22 05:07:12;;;;;;;19.07;17.57;;;14.90;99.90;;;;;;4813421;29;20630;-44
2023/05/22 05:09:37;;;;;;;19.90;18.40;;;15.00;99.90;;;;;;4813240;29;20459;-49
2023/05/22 05:12:03;;;;;;;19.50;18.00;;;15.10;99.90;;;;;;4812767;29;20490;-42
2023/05/22 05:14:29;;;;;;;18.80;17.30;;;15.20;99.90;;;;;;4813098;29;20189;-51
2023/05/22 05:16:55;;;;;;;19.00;17.50;;;15.30;99.90;;;;;;4813486;29;20434;-41
2023/05/22 05:19:21;;;;;;;19.60;18.10;;;15.40;99.90;;;;;;4811423;29;20194;-43
2023/05/22 05:21:48;;;;;;;19.30;17.80;;;15.50;99.90;;;;;;4811856;29;20717;-42
2023/05/22 05:24:17;;;;;;;19.00;17.60;;;15.60;99.90;;;;;;4813212;29;20186;-44
2023/05/22 05:26:43;;;;;;;20.03;18.33;;;15.70;99.90;;;;;;4813231;29;20427;-42
2023/05/22 05:29:08;;;;;;;21.03;19.43;;;15.80;99.90;;;;;;4812933;29;20479;-45
2023/05/22 05:31:34;;;;;;;18.80;17.43;;;15.90;99.90;;;;;;4812339;29;20446;-42
2023/05/22 05:34:00;;;;;;;20.67;18.97;;;16.00;99.90;;;;;;4812430;29;20201;-46
2023/05/22 05:36:26;;;;;;;19.70;18.20;;;16.10;99.90;;;;;;4813198;29;20957;-41
2023/05/22 05:38:51;;;;;;;17.20;15.90;;;16.20;99.90;;;;;;4812987;29;20193;-45
2023/05/22 05:41:17;;;;;;;18.77;17.37;;;16.20;99.90;;;;;;4812396;29;20193;-40
2023/05/22 05:43:43;;;;;;;19.90;18.30;;;16.30;99.90;;;;;;4811346;29;20202;-42
2023/05/22 05:46:09;;;;;;;18.83;17.43;;;16.40;99.90;;;;;;4812638;29;20431;-45
2023/05/22 05:48:35;;;;;;;18.97;17.57;;;16.50;99.90;;;;;;4812543;29;20431;-43
2023/05/22 05:51:00;;;;;;;19.67;18.23;;;16.60;99.90;;;;;;4811991;29;20628;-44
2023/05/22 05:53:27;;;;;;;19.23;17.93;;;16.70;99.90;;;;;;4812519;29;20189;-42
2023/05/22 05:55:53;;;;;;;18.10;16.80;;;16.90;99.90;;;;;;4812676;29;20186;-51
2023/05/22 05:58:18;;;;;;;18.40;17.00;;;17.00;99.90;;;;;;4811604;29;20854;-45
2023/05/22 06:00:44;;;;;;;18.63;16.87;;;17.20;99.90;;;;;;4811567;29;20454;-50
2023/05/22 06:03:10;;;;;;;18.83;17.43;;;17.30;99.90;;;;;;4811651;29;20202;-51
2023/05/22 06:05:35;;;;;;;19.83;18.23;;;17.40;99.90;;;;;;4812690;29;20442;-53
2023/05/22 06:08:01;;;;;;;20.03;18.23;;;17.60;99.90;;;;;;4812710;29;20555;-50
2023/05/22 06:10:27;;;;;;;19.47;18.07;;;17.70;99.90;;;;;;4811873;29;20298;-49
2023/05/22 06:12:53;;;;;;;19.13;17.60;;;17.80;99.90;;;;;;4812369;29;21033;-52
2023/05/22 06:15:18;;;;;;;20.07;18.67;;;17.90;99.90;;;;;;4812612;29;20202;-49
2023/05/22 06:17:44;;;;;;;20.27;18.67;;;18.00;99.90;;;;;;4812341;29;20194;-49
2023/05/22 06:20:10;;;;;;;18.50;17.20;;;18.10;99.90;;;;;;4812518;29;20809;-46
2023/05/22 06:22:36;;;;;;;18.50;17.10;;;18.20;99.90;;;;;;4810449;29;20285;-52
2023/05/22 06:25:02;;;;;;;19.57;17.97;;;18.30;99.90;;;;;;4812305;29;21280;-49
2023/05/22 06:27:27;;;;;;;19.63;18.03;;;18.40;99.90;;;;;;4812500;29;20534;-49
2023/05/22 06:29:53;;;;;;;19.17;17.87;;;18.40;99.90;;;;;;4812591;29;20225;-53
2023/05/22 06:32:19;;;;;;;20.00;18.40;;;18.50;99.90;;;;;;4811785;29;20201;-52
2023/05/22 06:34:46;;;;;;;19.37;17.97;;;18.60;99.90;;;;;;4811994;29;20208;-47
2023/05/22 06:37:12;;;;;;;17.50;16.20;;;18.80;99.90;;;;;;4811944;29;20558;-49
2023/05/22 06:39:38;;;;;;;17.17;15.87;;;18.90;99.90;;;;;;4795624;29;20437;-54
2023/05/22 06:42:04;;;;;;;17.83;16.53;;;18.90;99.90;;;;;;4810170;29;20201;-50
2023/05/22 06:44:30;;;;;;;18.13;16.87;;;19.10;99.90;;;;;;4810546;29;20949;-48
2023/05/22 06:46:55;;;;;;;16.90;15.77;;;19.10;99.90;;;;;;4810861;29;20193;-53
2023/05/22 06:49:21;;;;;;;18.17;16.90;;;19.30;99.90;;;;;;4811898;29;20317;-49
2023/05/22 06:51:47;;;;;;;17.00;15.80;;;19.40;99.90;;;;;;4811166;29;20197;-54
2023/05/22 06:54:13;;;;;;;16.93;15.73;;;19.60;99.90;;;;;;4811881;29;20186;-49
2023/05/22 06:56:42;;;;;;;17.00;15.80;;;19.70;99.90;;;;;;4811988;29;20186;-50
2023/05/22 06:59:09;;;;;;;17.50;16.10;;;19.80;99.90;;;;;;4811215;29;20427;-47
2023/05/22 07:01:34;;;;;;;17.30;16.20;;;19.90;99.90;;;;;;4811051;29;20950;-51
2023/05/22 07:04:03;;;;;;;16.77;15.57;;;20.10;99.90;;;;;;4810042;29;20454;-52
2023/05/22 07:06:32;;;;;;;16.70;15.60;;;20.20;99.90;;;;;;4811638;29;20469;-46
2023/05/22 07:08:58;;;;;;;16.97;15.90;;;20.30;99.90;;;;;;4811540;29;20434;-53
2023/05/22 07:11:24;;;;;;;15.70;14.70;;;20.50;99.90;;;;;;4811549;29;20446;-49
2023/05/22 07:13:50;;;;;;;18.00;16.80;;;20.60;99.90;;;;;;4811305;29;20752;-46
2023/05/22 07:16:15;;;;;;;15.90;14.80;;;20.80;99.90;;;;;;4810514;29;20510;-51
2023/05/22 07:18:41;;;;;;;16.67;15.50;;;21.00;99.90;;;;;;4810157;29;20254;-55
2023/05/22 07:21:07;;;;;;;16.43;15.33;;;21.00;99.90;;;;;;4810986;29;20198;-50
2023/05/22 07:23:32;;;;;;;16.97;15.77;;;21.20;99.90;;;;;;4809235;29;20241;-53
2023/05/22 07:25:58;;;;;;;16.87;15.77;;;21.30;99.90;;;;;;4811447;29;20683;-53
2023/05/22 07:28:24;;;;;;;15.70;14.60;;;21.30;99.90;;;;;;4810790;29;20238;-53
2023/05/22 07:30:50;;;;;;;16.90;15.67;;;21.40;99.90;;;;;;4810566;29;20217;-47
2023/05/22 07:33:15;;;;;;;16.90;15.80;;;21.60;99.90;;;;;;4811934;29;20277;-55
2023/05/22 07:35:41;;;;;;;16.23;15.23;;;21.70;98.50;;;;;;4811382;29;20438;-50
2023/05/22 07:38:07;;;;;;;16.20;15.10;;;21.90;97.80;;;;;;4811291;29;20189;-46
2023/05/22 07:40:32;;;;;;;16.47;15.37;;;22.00;97.20;;;;;;4808893;29;20278;-58
2023/05/22 07:42:58;;;;;;;15.40;14.43;;;22.30;97.00;;;;;;4811148;29;20538;-52
2023/05/22 07:45:25;;;;;;;15.63;14.63;;;22.50;97.10;;;;;;4811283;29;20209;-47
2023/05/22 07:47:50;;;;;;;15.70;14.80;;;22.80;96.80;;;;;;4811800;29;20289;-43
2023/05/22 07:50:16;;;;;;;15.00;14.10;;;23.10;95.60;;;;;;4793893;29;20713;-50
2023/05/22 07:52:43;;;;;;;14.50;13.70;;;23.30;94.40;;;;;;4794667;29;20193;-59
2023/05/22 07:55:08;;;;;;;15.83;14.93;;;23.40;81.40;;;;;;4794578;29;20189;-54
2023/05/22 07:57:35;;;;;;;15.37;14.47;;;23.40;71.90;;;;;;4811121;29;20902;-50
2023/05/22 08:00:08;;;;;;;13.37;12.67;;;23.50;73.50;;;;;;4810591;29;20210;-48
2023/05/22 08:02:35;;;;;;;14.67;13.87;;;23.80;72.30;;;;;;4810964;29;20427;-55
2023/05/22 08:05:03;;;;;;;15.20;14.30;;;24.10;74.90;;;;;;4811257;29;20427;-52
2023/05/22 08:07:28;;;;;;;15.10;14.00;;;24.30;73.50;;;;;;4811102;29;20488;-49
2023/05/22 08:09:54;;;;;;;15.10;14.30;;;24.60;70.10;;;;;;4810776;29;20524;-51
2023/05/22 08:12:20;;;;;;;14.07;13.27;;;24.80;65.50;;;;;;4814926;29;20190;-58
2023/05/22 08:14:45;;;;;;;13.37;12.67;;;25.10;64.30;;;;;;4812998;29;20509;-51
2023/05/22 08:17:11;;;;;;;14.07;13.07;;;25.20;56.30;;;;;;4813107;29;20186;-50
2023/05/22 08:19:36;;;;;;;14.00;13.30;;;25.30;54.40;;;;;;4813612;29;20218;-53
2023/05/22 08:22:02;;;;;;;14.47;13.67;;;25.40;54.20;;;;;;4814166;29;20643;-48
2023/05/22 08:24:29;;;;;;;13.90;13.10;;;25.50;49.40;;;;;;4813917;29;20278;-50
2023/05/22 08:26:57;;;;;;;13.30;12.60;;;25.60;47.80;;;;;;4813253;29;20186;-49
2023/05/22 08:29:22;;;;;;;14.07;13.20;;;25.70;45.40;;;;;;4813392;29;20466;-58
2023/05/22 08:31:48;;;;;;;13.77;12.97;;;25.90;44.90;;;;;;4814018;29;20941;-54
2023/05/22 08:34:14;;;;;;;14.60;13.70;;;26.00;45.90;;;;;;4813246;29;20225;-53
2023/05/22 08:36:39;;;;;;;13.53;12.80;;;26.20;43.60;;;;;;4814119;29;20186;-52
2023/05/22 08:39:06;;;;;;;14.23;13.53;;;26.40;43.60;;;;;;4813702;29;20186;-52
2023/05/22 08:41:31;;;;;;;14.90;14.00;;;26.60;43.40;;;;;;4812598;29;20436;-50
2023/05/22 08:43:57;;;;;;;14.13;13.27;;;26.80;42.60;;;;;;4814357;29;20426;-46
2023/05/22 08:46:27;;;;;;;14.63;13.73;;;27.00;42.90;;;;;;4813659;29;20186;-48
2023/05/22 08:48:57;;;;;;;13.97;13.27;;;27.20;43.10;;;;;;4813322;29;20272;-44
2023/05/22 08:51:27;;;;;;;14.00;13.30;;;27.50;44.10;;;;;;4813028;29;20447;-44
2023/05/22 08:53:55;;;;;;;14.20;13.50;;;27.70;43.60;;;;;;4813299;29;20449;-49
2023/05/22 08:56:21;;;;;;;13.83;13.10;;;28.00;42.70;;;;;;4813551;29;20445;-41
2023/05/22 08:58:48;;;;;;;14.60;13.80;;;28.10;42.40;;;;;;4813834;29;20439;-42
2023/05/22 09:01:15;;;;;;;14.43;13.43;;;28.40;43.30;;;;;;4812859;29;20197;-47
2023/05/22 09:03:41;;;;;;;14.90;14.10;;;28.70;43.20;;;;;;4812732;29;20439;-43
2023/05/22 09:06:09;;;;;;;14.47;13.73;;;28.90;41.90;;;;;;4813476;29;20438;-42
2023/05/22 09:08:34;;;;;;;15.00;14.20;;;29.20;40.80;;;;;;4812187;29;20720;-43
2023/05/22 09:11:00;;;;;;;14.70;13.80;;;29.50;40.60;;;;;;4812895;29;20471;-43
2023/05/22 09:13:28;;;;;;;15.13;14.23;;;29.70;39.40;;;;;;4812306;29;20201;-51
2023/05/22 09:16:11;;;;;;;15.63;14.83;;;29.80;38.90;;;;;;4813475;29;20550;-49
2023/05/22 09:18:37;;;;;;;17.37;16.37;;;29.90;37.90;;;;;;4813235;29;20491;-44
2023/05/22 09:21:04;;;;;;;16.33;15.37;;;30.10;39.30;;;;;;4813329;29;20495;-45
2023/05/22 09:23:29;;;;;;;15.20;14.30;;;30.20;39.80;;;;;;4811780;29;21051;-45
2023/05/22 09:25:57;;;;;;;15.43;14.63;;;30.60;39.60;;;;;;4813129;29;20447;-44
2023/05/22 09:28:23;;;;;;;14.97;13.90;;;30.90;39.10;;;;;;4813716;29;20202;-46
2023/05/22 09:30:51;;;;;;;16.63;15.60;;;31.30;38.00;;;;;;4813024;29;20474;-52
2023/05/22 09:33:18;;;;;;;15.60;14.70;;;31.70;36.90;;;;;;4812504;29;20469;-50
2023/05/22 09:35:47;;;;;;;15.63;14.83;;;32.10;35.40;;;;;;4813324;29;20523;-43
2023/05/22 09:38:13;;;;;;;14.73;13.93;;;32.60;34.80;;;;;;4813219;29;21002;-44
2023/05/22 09:40:39;;;;;;;15.43;14.60;;;32.90;34.80;;;;;;4813230;29;20777;-43
2023/05/22 09:43:09;;;;;;;15.00;14.30;;;33.30;34.10;;;;;;4810967;29;20462;-44
2023/05/22 09:45:36;;;;;;;15.70;14.90;;;33.60;33.00;;;;;;4812892;29;20431;-45
2023/05/22 09:48:05;;;;;;;14.87;13.93;;;33.70;31.90;;;;;;4812803;29;20447;-45
2023/05/22 09:50:35;;;;;;;15.10;14.30;;;33.80;31.00;;;;;;4813014;29;20490;-47
2023/05/22 09:53:02;;;;;;;15.57;14.77;;;33.80;30.30;;;;;;4812812;29;20471;-47
2023/05/22 09:55:29;;;;;;;14.80;14.10;;;33.90;30.00;;;;;;4811409;29;20965;-42
2023/05/22 09:57:55;;;;;;;14.07;13.27;;;34.20;29.50;;;;;;4812514;29;20427;-46
2023/05/22 10:00:23;;;;;;;14.73;13.93;;;34.30;29.50;;;;;;4812806;29;20925;-45
2023/05/22 10:03:02;;;;;;;13.63;12.90;;;34.60;29.10;;;;;;4812475;29;20519;-45
2023/05/22 10:05:31;;;;;;;14.00;13.30;;;34.60;28.90;;;;;;4812616;29;20451;-48
2023/05/22 10:08:09;;;;;;;14.03;13.33;;;34.60;27.70;;;;;;4812891;29;21086;-44
2023/05/22 10:10:36;;;;;;;14.50;13.80;;;34.60;28.10;;;;;;4812180;29;20519;-45
2023/05/22 10:13:08;;;;;;;15.17;14.37;;;34.50;28.40;;;;;;4812420;29;20510;-45
2023/05/22 10:15:34;;;;;;;14.47;13.67;;;34.40;28.10;;;;;;4811746;29;20435;-43
2023/05/22 10:18:01;;;;;;;14.87;14.07;;;34.50;28.20;;;;;;4812747;29;20497;-45
2023/05/22 10:20:28;;;;;;;14.97;14.27;;;34.70;27.70;;;;;;4812493;29;20434;-49
2023/05/22 10:22:54;;;;;;;14.43;13.63;;;34.50;27.30;;;;;;4812022;29;20632;-45
2023/05/22 10:25:24;;;;;;;13.37;12.67;;;34.30;26.80;;;;;;4811097;29;20621;-43
2023/05/22 10:27:54;;;;;;;13.40;12.77;;;34.00;27.90;;;;;;4812259;29;20435;-44
2023/05/22 10:30:23;;;;;;;14.57;13.87;;;33.40;27.60;;;;;;4812285;29;20446;-46
2023/05/22 10:33:12;;;;;;;13.27;12.57;;;33.20;28.40;;;;;;4812078;29;20732;-48
2023/05/22 10:35:43;;;;;;;15.37;14.67;;;32.80;28.10;;;;;;4804576;29;20542;-45
2023/05/22 10:38:46;;;;;;;15.40;14.67;;;32.60;28.50;;;;;;4811927;29;21011;-49
2023/05/22 10:41:12;;;;;;;15.30;14.50;;;32.20;29.30;;;;;;4812062;29;20585;-48
2023/05/22 10:43:43;;;;;;;15.00;14.20;;;32.00;29.60;;;;;;4809703;29;20462;-42
2023/05/22 10:46:11;;;;;;;14.43;13.73;;;31.70;29.80;;;;;;4812134;29;20424;-44
2023/05/22 10:48:45;;;;;;;15.23;14.43;;;31.90;29.90;;;;;;4811984;29;20431;-48
2023/05/22 10:51:16;;;;;;;14.50;13.80;;;32.10;29.80;;;;;;4812106;29;20475;-47
2023/05/22 10:53:44;;;;;;;13.73;13.03;;;32.60;29.20;;;;;;4811127;29;20451;-48
2023/05/22 10:56:11;;;;;;;13.87;13.17;;;33.10;27.90;;;;;;4811772;29;20467;-46
2023/05/22 10:58:43;;;;;;;13.47;12.80;;;33.50;27.40;;;;;;4811932;29;20510;-48
2023/05/22 11:01:13;;;;;;;13.40;12.70;;;33.90;26.30;;;;;;4795543;29;20498;-47
2023/05/22 11:03:57;;;;;;;14.10;13.40;;;34.30;26.00;;;;;;4811388;29;21012;-44
2023/05/22 11:06:48;;;;;;;14.13;13.30;;;34.80;25.30;;;;;;4812305;29;20442;-44
2023/05/22 11:09:37;;;;;;;14.10;13.40;;;35.20;24.70;;;;;;4811860;29;20423;-44
2023/05/22 11:12:23;;;;;;;13.90;13.20;;;35.60;23.50;;;;;;4811114;29;20454;-46
2023/05/22 11:15:04;;;;;;;13.60;13.00;;;35.80;23.40;;;;;;4811709;29;20522;-51
2023/05/22 11:17:48;;;;;;;14.57;13.87;;;36.20;22.80;;;;;;4811711;29;20950;-42
2023/05/22 11:20:23;;;;;;;12.60;12.00;;;36.10;23.10;;;;;;4811455;29;21252;-44
2023/05/22 11:22:59;;;;;;;14.80;14.00;;;35.60;23.10;;;;;;4810020;29;20955;-45
2023/05/22 11:25:26;;;;;;;13.87;13.17;;;35.40;23.10;;;;;;4811644;29;21008;-43
2023/05/22 11:27:53;;;;;;;13.47;12.77;;;35.20;23.00;;;;;;4811178;29;20713;-45
2023/05/22 11:30:19;;;;;;;14.53;13.23;;;35.40;23.40;;;;;;4811412;29;20431;-45
2023/05/22 11:32:46;;;;;;;15.30;14.60;;;36.00;23.40;;;;;;4810762;29;20459;-44
2023/05/22 11:35:17;;;;;;;14.63;13.93;;;36.40;23.30;;;;;;4811375;29;20522;-48
2023/05/22 11:37:43;;;;;;;14.80;13.90;;;36.80;21.90;;;;;;4811445;29;20535;-45
2023/05/22 11:40:09;;;;;;;14.17;13.40;;;37.40;21.70;;;;;;4811077;29;20518;-44
2023/05/22 11:42:36;;;;;;;14.17;13.43;;;37.70;21.90;;;;;;4810059;29;20462;-46
2023/05/22 11:45:03;;;;;;;13.60;12.90;;;38.10;21.10;;;;;;4796546;29;20442;-47
2023/05/22 11:47:29;;;;;;;13.20;12.60;;;38.40;20.60;;;;;;4815866;29;20692;-44
2023/05/22 11:49:58;;;;;;;15.27;14.37;;;38.50;19.70;;;;;;4817050;29;20457;-46
2023/05/22 11:52:24;;;;;;;14.27;13.30;;;38.50;19.90;;;;;;4817248;29;20484;-48
2023/05/22 11:54:53;;;;;;;15.30;14.40;;;38.40;20.20;;;;;;4816994;29;21225;-45
2023/05/22 11:57:19;;;;;;;13.30;12.60;;;38.10;19.50;;;;;;4816451;29;20451;-47
2023/05/22 11:59:48;;;;;;;14.87;14.17;;;37.80;20.10;;;;;;4815954;29;20690;-48
2023/05/22 12:02:17;;;;;;;13.23;12.63;;;37.70;20.70;;;;;;4817456;29;20917;-55
2023/05/22 12:04:43;;;;;;;13.10;12.30;;;37.50;20.10;;;;;;4817262;29;20430;-50
2023/05/22 12:07:09;;;;;;;14.53;13.53;;;37.60;20.90;;;;;;4817099;29;20446;-53
2023/05/22 12:09:37;;;;;;;13.00;12.40;;;37.90;20.80;;;;;;4799543;29;20230;-53
2023/05/22 12:12:02;;;;;;;14.50;13.80;;;38.40;19.80;;;;;;4817113;29;20655;-53
2023/05/22 12:14:30;;;;;;;14.93;14.00;;;38.90;19.20;;;;;;4816630;29;20446;-48
2023/05/22 12:16:59;;;;;;;13.00;12.20;;;38.80;19.20;;;;;;4816921;29;20182;-52
2023/05/22 12:19:26;;;;;;;12.83;12.23;;;38.90;18.70;;;;;;4816041;29;20478;-51
2023/05/22 12:21:53;;;;;;;14.07;13.43;;;39.00;18.90;;;;;;4816706;29;21065;-51
2023/05/22 12:24:27;;;;;;;15.10;14.37;;;38.60;18.80;;;;;;4817539;29;20493;-52
2023/05/22 12:26:53;;;;;;;14.30;13.40;;;38.50;18.90;;;;;;4816953;29;20862;-54
2023/05/22 12:29:21;;;;;;;14.00;13.27;;;38.40;19.60;;;;;;4815738;29;20526;-51
2023/05/22 12:31:47;;;;;;;14.17;13.47;;;38.50;19.10;;;;;;4816351;29;20736;-53